Time;durP1;ratioP1;P1;durP2;ratioP2;P2;SDS_P1;SDS_P2;PMS_P1;PMS_P2;Temp;Humidity;BMP_temperature;BMP_pressure;BME280_temperature;BME280_humidity;BME280_pressure;Samples;Min_cycle;Max_cycle;Signal;HPM_P1;HPM_P2
2023/07/25 00:00:11;;;;;;;3.75;2.30;;;19.50;71.90;;;;;;5046254;28;20124;-54
2023/07/25 00:02:45;;;;;;;3.63;2.10;;;19.50;71.80;;;;;;5050655;28;20048;-54
2023/07/25 00:05:15;;;;;;;6.82;2.80;;;19.60;71.80;;;;;;5051815;28;20055;-55
2023/07/25 00:07:44;;;;;;;5.07;2.00;;;19.50;71.80;;;;;;5048614;28;20037;-52
2023/07/25 00:10:10;;;;;;;3.95;2.10;;;19.50;71.60;;;;;;5050861;28;20045;-55
2023/07/25 00:12:37;;;;;;;1.55;1.38;;;19.50;71.60;;;;;;5050598;28;20072;-51
2023/07/25 00:15:07;;;;;;;2.63;1.80;;;19.60;71.70;;;;;;5051482;28;20136;-55
2023/07/25 00:17:36;;;;;;;2.33;1.88;;;19.50;72.20;;;;;;5047338;28;20485;-55
2023/07/25 00:20:04;;;;;;;2.78;2.05;;;19.50;72.10;;;;;;5049972;28;20080;-54
2023/07/25 00:22:31;;;;;;;1.50;1.40;;;19.50;72.20;;;;;;5050077;28;20059;-55
2023/07/25 00:25:04;;;;;;;2.45;1.88;;;19.50;72.40;;;;;;5057105;22;20091;-50
2023/07/25 00:27:33;;;;;;;3.83;1.90;;;19.50;72.40;;;;;;5030255;28;20136;-50
2023/07/25 00:29:59;;;;;;;4.80;2.20;;;19.50;72.40;;;;;;5012008;28;20075;-51
2023/07/25 00:32:26;;;;;;;2.33;2.10;;;19.50;72.40;;;;;;5030368;28;20065;-50
2023/07/25 00:34:54;;;;;;;2.95;1.90;;;19.50;72.20;;;;;;5019522;28;20042;-52
2023/07/25 00:37:21;;;;;;;2.97;1.75;;;19.50;72.00;;;;;;5011912;28;20069;-51
2023/07/25 00:39:52;;;;;;;3.72;1.95;;;19.40;71.90;;;;;;5025531;28;20531;-49
2023/07/25 00:42:20;;;;;;;;;;;19.40;71.80;;;;;;5031018;28;20041;-51
2023/07/25 00:44:50;;;;;;;2.58;1.88;;;19.50;71.70;;;;;;5030229;28;20291;-51
2023/07/25 00:47:18;;;;;;;3.03;1.70;;;19.50;71.60;;;;;;5034311;28;20495;-48
2023/07/25 00:49:45;;;;;;;3.53;1.92;;;19.40;71.80;;;;;;5028606;28;20030;-50
2023/07/25 00:52:17;;;;;;;1.63;1.52;;;19.40;71.80;;;;;;5035979;28;20048;-50
2023/07/25 00:54:54;;;;;;;3.08;2.88;;;19.30;71.70;;;;;;5008107;28;20038;-52
2023/07/25 00:57:26;;;;;;;3.10;1.80;;;19.30;72.20;;;;;;5024251;28;20038;-48
2023/07/25 00:59:54;;;;;;;3.55;1.83;;;19.40;72.10;;;;;;5007334;28;20053;-50
2023/07/25 01:02:27;;;;;;;4.70;1.90;;;19.30;72.20;;;;;;5012334;28;20041;-52
2023/07/25 01:04:55;;;;;;;2.40;1.45;;;19.30;72.30;;;;;;5029812;28;20671;-52
2023/07/25 01:07:23;;;;;;;3.03;1.88;;;19.30;72.40;;;;;;5008196;28;20042;-52
2023/07/25 01:09:53;;;;;;;2.88;1.98;;;19.30;72.60;;;;;;5030603;28;20041;-52
2023/07/25 01:12:24;;;;;;;2.60;2.25;;;19.30;72.60;;;;;;5012061;28;20045;-52
2023/07/25 01:14:53;;;;;;;2.45;1.48;;;19.30;72.70;;;;;;5029644;28;20061;-52
2023/07/25 01:17:23;;;;;;;2.70;1.70;;;19.30;72.60;;;;;;5024699;28;20037;-52
2023/07/25 01:19:53;;;;;;;;;;;19.30;72.60;;;;;;5029730;28;20045;-52
2023/07/25 01:22:26;;;;;;;3.58;2.00;;;19.40;72.50;;;;;;5029393;28;19952;-49
2023/07/25 01:24:54;;;;;;;5.10;2.42;;;19.30;71.90;;;;;;5007229;28;20456;-52
2023/07/25 01:27:25;;;;;;;4.03;2.35;;;19.30;71.80;;;;;;5025289;28;20052;-50
2023/07/25 01:29:53;;;;;;;3.17;2.15;;;19.30;71.50;;;;;;5009083;28;20480;-52
2023/07/25 01:32:20;;;;;;;3.50;2.42;;;19.30;71.50;;;;;;5029576;28;20076;-51
2023/07/25 01:34:49;;;;;;;3.60;1.85;;;19.30;71.90;;;;;;5012539;28;20033;-51
2023/07/25 01:37:19;;;;;;;3.10;2.05;;;19.20;71.80;;;;;;5011281;28;20073;-51
2023/07/25 01:39:50;;;;;;;2.80;2.17;;;19.20;71.30;;;;;;5010476;28;20041;-52
2023/07/25 01:42:24;;;;;;;3.38;2.40;;;19.20;71.60;;;;;;5024574;28;20053;-50
2023/07/25 01:44:51;;;;;;;3.63;2.53;;;19.20;71.50;;;;;;5029940;28;20558;-51
2023/07/25 01:47:25;;;;;;;5.30;2.95;;;19.10;70.80;;;;;;5022413;28;20077;-52
2023/07/25 01:49:55;;;;;;;6.75;3.13;;;19.10;71.10;;;;;;5027817;28;20061;-49
2023/07/25 01:52:23;;;;;;;2.90;2.27;;;19.10;70.60;;;;;;5028881;28;20034;-47
2023/07/25 01:54:52;;;;;;;6.78;2.40;;;19.10;70.50;;;;;;5028509;28;20276;-52
2023/07/25 01:57:19;;;;;;;4.63;2.25;;;19.00;70.60;;;;;;5025243;28;20543;-48
2023/07/25 01:59:46;;;;;;;4.60;2.53;;;19.00;70.80;;;;;;5006449;28;20048;-51
2023/07/25 02:02:13;;;;;;;4.47;2.40;;;19.00;71.20;;;;;;5024504;28;20046;-50
2023/07/25 02:04:39;;;;;;;4.07;2.78;;;19.00;71.00;;;;;;5016129;28;20084;-51
2023/07/25 02:07:09;;;;;;;4.80;3.00;;;18.90;71.10;;;;;;5023743;28;20045;-52
2023/07/25 02:09:38;;;;;;;3.00;2.40;;;18.90;71.30;;;;;;5026639;28;20043;-50
2023/07/25 02:12:09;;;;;;;4.82;2.78;;;18.90;71.30;;;;;;5025298;28;20434;-52
2023/07/25 02:14:39;;;;;;;2.88;2.65;;;18.90;71.30;;;;;;5010968;28;20077;-52
2023/07/25 02:17:05;;;;;;;5.32;2.60;;;18.90;71.50;;;;;;5025362;28;20045;-52
2023/07/25 02:19:33;;;;;;;3.85;2.25;;;18.80;71.40;;;;;;5029280;28;20127;-52
2023/07/25 02:22:02;;;;;;;3.85;2.25;;;18.80;71.40;;;;;;5010914;28;20053;-51
2023/07/25 02:24:29;;;;;;;4.50;2.10;;;18.80;71.20;;;;;;5025985;28;20041;-50
2023/07/25 02:26:56;;;;;;;4.22;2.70;;;18.80;71.80;;;;;;5005508;28;20049;-51
2023/07/25 02:29:25;;;;;;;3.90;2.60;;;18.70;71.30;;;;;;5026156;28;20033;-51
2023/07/25 02:31:51;;;;;;;5.47;2.45;;;18.80;71.40;;;;;;5010638;28;20443;-52
2023/07/25 02:34:20;;;;;;;2.70;2.33;;;18.70;71.10;;;;;;5024479;28;20042;-51
2023/07/25 02:36:46;;;;;;;3.55;2.65;;;18.70;71.10;;;;;;5025633;28;20041;-52
2023/07/25 02:39:13;;;;;;;4.15;2.20;;;18.60;70.70;;;;;;5026882;28;20140;-49
2023/07/25 02:41:42;;;;;;;3.83;2.55;;;18.60;70.80;;;;;;5028045;28;20055;-51
2023/07/25 02:44:11;;;;;;;2.53;2.10;;;18.50;70.90;;;;;;5018117;28;20132;-49
2023/07/25 02:46:37;;;;;;;2.33;2.10;;;18.50;71.10;;;;;;5011047;28;20073;-49
2023/07/25 02:49:06;;;;;;;5.47;2.75;;;18.40;71.00;;;;;;5027010;28;20065;-50
2023/07/25 02:51:33;;;;;;;7.60;2.67;;;18.40;71.10;;;;;;5030326;28;20099;-52
2023/07/25 02:54:00;;;;;;;2.92;2.47;;;18.40;71.30;;;;;;5026194;28;20099;-48
2023/07/25 02:56:28;;;;;;;5.13;2.40;;;18.30;71.40;;;;;;5010595;28;20099;-51
2023/07/25 02:58:55;;;;;;;2.72;1.98;;;18.40;71.60;;;;;;5024625;28;20064;-51
2023/07/25 03:01:23;;;;;;;4.60;2.30;;;18.40;71.70;;;;;;5028199;28;20434;-52
2023/07/25 03:03:49;;;;;;;4.25;2.65;;;18.30;71.80;;;;;;5011486;28;20073;-51
2023/07/25 03:06:18;;;;;;;2.85;2.40;;;18.30;71.80;;;;;;5028434;28;20037;-49
2023/07/25 03:08:53;;;;;;;3.58;2.50;;;18.30;71.80;;;;;;5028457;28;20423;-48
2023/07/25 03:11:20;;;;;;;4.10;2.40;;;18.30;72.00;;;;;;5013867;28;20100;-51
2023/07/25 03:13:51;;;;;;;3.92;2.30;;;18.30;72.00;;;;;;5014156;28;20063;-52
2023/07/25 03:16:25;;;;;;;2.88;2.63;;;18.30;71.90;;;;;;5028506;28;20045;-49
2023/07/25 03:18:52;;;;;;;6.40;2.30;;;18.30;71.60;;;;;;5030376;28;20045;-51
2023/07/25 03:21:23;;;;;;;4.90;2.38;;;18.30;71.60;;;;;;5027944;28;20041;-52
2023/07/25 03:23:50;;;;;;;3.75;3.08;;;18.40;71.40;;;;;;5031683;28;20499;-47
2023/07/25 03:26:23;;;;;;;2.42;2.22;;;18.30;71.20;;;;;;5012925;28;20042;-49
2023/07/25 03:28:53;;;;;;;4.50;2.40;;;18.40;71.10;;;;;;5027110;28;20053;-51
2023/07/25 03:31:22;;;;;;;6.40;3.35;;;18.40;71.00;;;;;;5032337;28;20048;-52
2023/07/25 03:33:51;;;;;;;4.05;2.55;;;18.40;70.70;;;;;;5015092;28;20069;-51
2023/07/25 03:36:17;;;;;;;4.47;3.08;;;18.40;70.60;;;;;;5028289;28;20139;-51
2023/07/25 03:38:46;;;;;;;4.75;3.17;;;18.40;70.50;;;;;;5018342;28;20095;-52
2023/07/25 03:41:13;;;;;;;5.18;2.80;;;18.40;70.50;;;;;;5009794;28;20087;-52
2023/07/25 03:43:42;;;;;;;4.22;2.70;;;18.30;70.40;;;;;;5031861;28;20052;-51
2023/07/25 03:46:09;;;;;;;4.53;2.33;;;18.30;70.40;;;;;;5011355;28;20053;-52
2023/07/25 03:48:36;;;;;;;5.00;2.67;;;18.30;70.40;;;;;;5032218;28;20041;-51
2023/07/25 03:51:02;;;;;;;3.10;2.28;;;18.30;70.30;;;;;;5033184;28;20045;-51
2023/07/25 03:53:29;;;;;;;3.15;2.85;;;18.30;70.20;;;;;;5032638;28;20048;-50
2023/07/25 03:55:58;;;;;;;3.80;2.30;;;18.20;70.00;;;;;;5027411;28;20563;-48
2023/07/25 03:58:25;;;;;;;2.88;2.58;;;18.20;70.00;;;;;;5028899;28;20124;-52
2023/07/25 04:00:54;;;;;;;3.90;2.67;;;18.20;70.00;;;;;;5006689;28;20038;-51
2023/07/25 04:03:20;;;;;;;3.55;2.53;;;18.20;70.10;;;;;;5031888;28;20045;-52
2023/07/25 04:05:50;;;;;;;3.85;2.85;;;18.10;70.00;;;;;;5014398;28;20076;-49
2023/07/25 04:08:20;;;;;;;4.63;2.72;;;18.10;70.10;;;;;;5029788;28;20050;-51
2023/07/25 04:10:50;;;;;;;6.63;2.80;;;18.10;70.20;;;;;;5032124;28;20108;-47
2023/07/25 04:13:16;;;;;;;4.13;2.97;;;18.10;70.40;;;;;;5031161;28;20033;-50
2023/07/25 04:15:44;;;;;;;4.65;2.75;;;18.10;70.50;;;;;;5027029;28;20492;-47
2023/07/25 04:18:11;;;;;;;5.25;3.05;;;18.00;70.40;;;;;;5028331;28;20052;-51
2023/07/25 04:20:43;;;;;;;3.17;2.45;;;18.10;70.50;;;;;;5030048;28;20054;-46
2023/07/25 04:23:15;;;;;;;3.10;2.80;;;18.10;70.50;;;;;;5031214;28;20483;-49
2023/07/25 04:25:42;;;;;;;2.67;2.33;;;18.10;70.60;;;;;;5030216;28;20095;-47
2023/07/25 04:28:10;;;;;;;5.72;2.80;;;18.00;70.70;;;;;;5013177;28;20038;-51
2023/07/25 04:30:43;;;;;;;3.88;2.95;;;18.00;70.90;;;;;;5027627;28;20038;-47
2023/07/25 04:33:09;;;;;;;3.90;2.83;;;18.10;71.00;;;;;;5030756;28;20045;-48
2023/07/25 04:35:38;;;;;;;3.83;2.80;;;18.10;71.10;;;;;;5028896;28;20096;-49
2023/07/25 04:38:10;;;;;;;9.85;3.53;;;18.10;71.20;;;;;;5027068;28;20038;-48
2023/07/25 04:40:42;;;;;;;9.55;4.40;;;18.10;71.20;;;;;;5029280;28;20061;-50
2023/07/25 04:43:09;;;;;;;6.30;3.50;;;18.10;71.30;;;;;;5030731;28;20029;-47
2023/07/25 04:45:37;;;;;;;3.38;3.00;;;18.10;71.30;;;;;;5013123;28;20056;-51
2023/07/25 04:48:05;;;;;;;5.35;3.28;;;18.20;71.30;;;;;;5021212;28;20117;-48
2023/07/25 04:50:32;;;;;;;4.75;3.40;;;18.20;71.20;;;;;;5010518;28;20030;-51
2023/07/25 04:52:58;;;;;;;4.65;3.60;;;18.20;71.20;;;;;;5011403;28;20049;-52
2023/07/25 04:55:25;;;;;;;7.00;3.17;;;18.30;71.00;;;;;;5022313;28;20047;-50
2023/07/25 04:57:52;;;;;;;5.75;3.50;;;18.30;71.40;;;;;;5030346;28;20454;-51
2023/07/25 05:00:18;;;;;;;6.18;4.38;;;18.30;70.80;;;;;;5027214;28;20045;-48
2023/07/25 05:02:45;;;;;;;5.30;3.58;;;18.40;70.40;;;;;;5029747;28;20499;-51
2023/07/25 05:05:12;;;;;;;4.13;3.72;;;18.40;69.90;;;;;;5030864;28;20041;-46
2023/07/25 05:07:39;;;;;;;4.50;3.97;;;18.40;69.70;;;;;;5030363;28;20169;-51
2023/07/25 05:10:06;;;;;;;5.90;4.10;;;18.40;69.70;;;;;;5031002;28;20107;-46
2023/07/25 05:12:33;;;;;;;5.90;4.15;;;18.50;69.70;;;;;;5025376;28;20048;-50
2023/07/25 05:14:59;;;;;;;5.55;4.55;;;18.50;69.20;;;;;;5028076;28;20152;-51
2023/07/25 05:17:26;;;;;;;4.57;3.60;;;18.50;68.90;;;;;;5029441;28;20454;-52
2023/07/25 05:19:53;;;;;;;7.05;4.88;;;18.50;69.00;;;;;;5029412;28;20041;-51
2023/07/25 05:22:19;;;;;;;6.05;4.18;;;18.40;68.90;;;;;;5026652;28;20041;-52
2023/07/25 05:24:46;;;;;;;7.88;4.55;;;18.40;68.80;;;;;;5029157;28;20153;-52
2023/07/25 05:27:15;;;;;;;6.00;5.15;;;18.30;68.90;;;;;;5028910;28;20037;-52
2023/07/25 05:29:42;;;;;;;5.57;4.15;;;18.30;68.80;;;;;;5025574;28;20072;-52
2023/07/25 05:32:08;;;;;;;7.25;4.53;;;18.30;69.00;;;;;;5033607;28;20141;-52
2023/07/25 05:34:35;;;;;;;6.63;4.68;;;18.20;69.20;;;;;;5011286;28;20057;-52
2023/07/25 05:37:02;;;;;;;8.00;4.55;;;18.20;69.60;;;;;;5028609;28;20124;-52
2023/07/25 05:39:28;;;;;;;9.77;5.30;;;18.20;69.60;;;;;;5026684;28;20073;-52
2023/07/25 05:41:55;;;;;;;5.30;4.45;;;18.20;69.60;;;;;;5011048;28;20069;-52
2023/07/25 05:44:21;;;;;;;6.15;5.40;;;18.20;70.00;;;;;;5028619;28;20507;-52
2023/07/25 05:46:48;;;;;;;7.22;4.47;;;18.20;69.30;;;;;;5026727;28;20531;-51
2023/07/25 05:49:15;;;;;;;7.93;5.68;;;18.20;69.50;;;;;;5028182;28;20087;-52
2023/07/25 05:51:41;;;;;;;5.93;5.32;;;18.20;69.80;;;;;;5030852;28;20080;-52
2023/07/25 05:54:08;;;;;;;7.60;4.95;;;18.20;69.90;;;;;;5030505;28;20091;-52
2023/07/25 05:56:35;;;;;;;7.05;4.70;;;18.20;69.60;;;;;;5026144;28;20103;-52
2023/07/25 05:59:01;;;;;;;7.32;4.93;;;18.20;69.60;;;;;;5023585;28;20093;-52
2023/07/25 06:01:28;;;;;;;7.18;5.18;;;18.30;69.70;;;;;;5028599;28;20076;-51
2023/07/25 06:03:56;;;;;;;8.55;5.07;;;18.30;69.70;;;;;;5011057;28;20049;-51
2023/07/25 06:06:23;;;;;;;8.23;5.50;;;18.30;69.70;;;;;;5035094;28;20037;-52
2023/07/25 06:08:49;;;;;;;6.40;4.82;;;18.30;69.60;;;;;;5025214;28;20061;-52
2023/07/25 06:11:21;;;;;;;7.03;5.18;;;18.30;69.40;;;;;;5028627;28;20462;-53
2023/07/25 06:13:49;;;;;;;7.27;5.47;;;18.30;69.60;;;;;;5029308;28;20041;-52
2023/07/25 06:16:16;;;;;;;6.72;4.53;;;18.40;69.50;;;;;;5026594;28;20041;-52
2023/07/25 06:18:43;;;;;;;6.45;5.10;;;18.40;69.50;;;;;;5029057;28;20092;-51
2023/07/25 06:21:10;;;;;;;9.77;5.10;;;18.40;69.40;;;;;;5029290;28;20049;-52
2023/07/25 06:23:37;;;;;;;5.85;5.15;;;18.50;69.10;;;;;;5026654;28;20045;-52
2023/07/25 06:26:04;;;;;;;6.88;4.70;;;18.50;69.10;;;;;;5023980;28;20045;-51
2023/07/25 06:28:33;;;;;;;6.95;5.03;;;18.50;69.30;;;;;;5043347;23;20046;-55
2023/07/25 06:31:00;;;;;;;6.97;4.50;;;18.60;69.20;;;;;;5005635;28;20132;-55
2023/07/25 06:33:26;;;;;;;6.75;4.60;;;18.70;68.90;;;;;;5042123;28;20116;-55
2023/07/25 06:35:53;;;;;;;5.35;3.55;;;18.70;68.20;;;;;;5028170;28;20045;-55
2023/07/25 06:38:20;;;;;;;6.53;4.40;;;18.80;68.20;;;;;;5037768;28;20049;-55
2023/07/25 06:40:46;;;;;;;6.60;4.63;;;18.80;68.00;;;;;;5028681;28;20050;-55
2023/07/25 06:43:13;;;;;;;5.40;4.18;;;18.90;67.60;;;;;;5030390;28;20080;-55
2023/07/25 06:45:40;;;;;;;8.52;4.10;;;18.90;67.80;;;;;;4999231;28;20469;-55
2023/07/25 06:48:07;;;;;;;6.15;3.85;;;19.00;67.80;;;;;;5011714;28;20044;-55
2023/07/25 06:50:33;;;;;;;6.07;4.18;;;19.10;67.90;;;;;;5028613;28;20110;-54
2023/07/25 06:53:00;;;;;;;5.90;3.72;;;19.10;68.00;;;;;;5033312;28;20033;-55
2023/07/25 06:55:27;;;;;;;6.40;3.47;;;19.20;67.90;;;;;;5033891;28;20048;-55
2023/07/25 06:57:53;;;;;;;6.25;3.72;;;19.30;67.50;;;;;;5029401;28;20073;-53
2023/07/25 07:00:21;;;;;;;6.47;4.10;;;19.30;67.10;;;;;;5025517;28;20053;-56
2023/07/25 07:02:48;;;;;;;6.32;3.78;;;19.40;66.20;;;;;;5015501;28;20045;-56
2023/07/25 07:05:19;;;;;;;4.57;2.90;;;19.40;66.00;;;;;;5032884;28;20052;-55
2023/07/25 07:07:55;;;;;;;5.13;3.30;;;19.50;65.90;;;;;;5036609;28;20041;-55
2023/07/25 07:10:22;;;;;;;3.08;2.47;;;19.50;66.10;;;;;;5029785;28;20042;-55
2023/07/25 07:12:48;;;;;;;7.60;3.42;;;19.50;65.70;;;;;;5029372;28;20048;-55
2023/07/25 07:15:16;;;;;;;4.70;2.25;;;19.50;65.40;;;;;;5031098;28;20477;-55
2023/07/25 07:17:42;;;;;;;3.20;2.50;;;19.60;65.40;;;;;;5029323;28;20048;-55
2023/07/25 07:20:09;;;;;;;4.63;2.47;;;19.60;65.30;;;;;;5031679;28;20056;-54
2023/07/25 07:22:36;;;;;;;7.30;2.85;;;19.60;65.30;;;;;;5031699;28;20120;-54
2023/07/25 07:25:06;;;;;;;3.90;2.63;;;19.70;65.20;;;;;;5030285;28;20056;-55
2023/07/25 07:27:33;;;;;;;6.05;3.33;;;19.80;65.20;;;;;;5013925;28;20124;-54
2023/07/25 07:30:00;;;;;;;3.90;2.22;;;19.80;64.50;;;;;;5028432;28;20453;-55
2023/07/25 07:32:26;;;;;;;5.53;2.10;;;19.80;64.60;;;;;;5032330;28;20760;-55
2023/07/25 07:34:53;;;;;;;9.82;2.40;;;19.80;64.50;;;;;;5033332;28;20482;-55
2023/07/25 07:37:20;;;;;;;5.22;2.10;;;19.90;63.90;;;;;;5028827;28;20046;-54
2023/07/25 07:39:47;;;;;;;2.97;1.80;;;19.90;63.60;;;;;;5032124;28;20047;-55
2023/07/25 07:42:14;;;;;;;3.22;1.63;;;20.00;63.40;;;;;;5031742;28;20514;-55
2023/07/25 07:44:43;;;;;;;3.92;1.92;;;20.00;63.20;;;;;;5034887;28;20053;-55
2023/07/25 07:47:10;;;;;;;3.40;2.03;;;20.10;62.80;;;;;;5026182;28;20136;-55
2023/07/25 07:49:37;;;;;;;6.47;1.80;;;20.10;62.90;;;;;;5032177;28;20037;-56
2023/07/25 07:52:03;;;;;;;3.72;1.75;;;20.10;62.60;;;;;;5032012;28;20069;-55
2023/07/25 07:54:43;;;;;;;3.55;1.83;;;20.10;62.40;;;;;;5030377;28;20499;-56
2023/07/25 07:57:09;;;;;;;4.60;1.60;;;20.20;62.60;;;;;;5026860;28;20049;-56
2023/07/25 07:59:36;;;;;;;2.72;1.70;;;20.20;61.90;;;;;;5013136;28;20051;-55
2023/07/25 08:02:03;;;;;;;4.20;1.33;;;20.20;62.30;;;;;;5032484;28;20049;-54
2023/07/25 08:04:30;;;;;;;1.95;1.40;;;20.20;61.30;;;;;;5030942;28;20050;-55
2023/07/25 08:06:57;;;;;;;4.47;1.90;;;20.30;61.50;;;;;;5028882;28;20080;-55
2023/07/25 08:09:26;;;;;;;2.50;1.50;;;20.30;61.20;;;;;;5031427;28;20073;-55
2023/07/25 08:11:53;;;;;;;4.18;2.05;;;20.30;61.50;;;;;;5032279;28;20561;-55
2023/07/25 08:14:20;;;;;;;2.85;1.55;;;20.40;60.90;;;;;;5013463;28;20458;-55
2023/07/25 08:16:46;;;;;;;5.35;1.80;;;20.40;60.80;;;;;;5029119;28;20069;-55
2023/07/25 08:19:13;;;;;;;4.70;1.77;;;20.40;61.50;;;;;;5030173;28;20052;-55
2023/07/25 08:21:39;;;;;;;6.15;1.35;;;20.50;61.10;;;;;;5030518;28;20123;-55
2023/07/25 08:24:06;;;;;;;5.03;1.42;;;20.50;60.20;;;;;;5032251;28;20048;-54
2023/07/25 08:26:34;;;;;;;3.60;1.98;;;20.60;59.50;;;;;;5028251;28;20422;-55
2023/07/25 08:29:01;;;;;;;3.47;2.05;;;20.60;59.10;;;;;;5028857;28;20038;-55
2023/07/25 08:31:27;;;;;;;3.17;2.08;;;20.70;59.50;;;;;;5030848;28;20129;-53
2023/07/25 08:33:56;;;;;;;1.83;1.48;;;20.70;59.30;;;;;;5031902;28;20087;-54
2023/07/25 08:36:22;;;;;;;3.05;1.75;;;20.70;59.30;;;;;;5029341;28;20080;-54
2023/07/25 08:38:49;;;;;;;4.78;1.58;;;20.80;59.00;;;;;;5027150;28;20049;-55
2023/07/25 08:41:18;;;;;;;3.20;1.50;;;20.80;59.00;;;;;;5030586;28;20530;-55
2023/07/25 08:43:46;;;;;;;3.63;1.90;;;20.80;58.60;;;;;;5031287;28;20037;-55
2023/07/25 08:46:17;;;;;;;2.05;1.75;;;20.90;58.40;;;;;;5025227;28;20070;-56
2023/07/25 08:48:46;;;;;;;7.77;2.57;;;20.90;58.50;;;;;;5023101;28;20113;-55
2023/07/25 08:51:19;;;;;;;5.68;2.05;;;20.90;58.30;;;;;;5030860;28;20072;-55
2023/07/25 08:54:21;;;;;;;5.07;1.67;;;20.90;57.90;;;;;;5029473;28;20109;-55
2023/07/25 08:56:48;;;;;;;6.55;2.58;;;20.90;57.20;;;;;;5019621;28;20045;-55
2023/07/25 08:59:16;;;;;;;4.32;2.13;;;20.90;57.70;;;;;;5026539;28;20091;-55
2023/07/25 09:01:44;;;;;;;4.82;1.40;;;20.90;57.50;;;;;;5023247;28;20044;-55
2023/07/25 09:04:12;;;;;;;5.95;1.70;;;20.80;57.60;;;;;;5031217;28;20049;-55
2023/07/25 09:06:39;;;;;;;4.13;1.30;;;20.80;57.90;;;;;;5028724;28;20069;-55
2023/07/25 09:09:07;;;;;;;2.50;1.58;;;20.80;57.70;;;;;;5020439;28;20066;-55
2023/07/25 09:11:34;;;;;;;3.70;1.95;;;20.80;57.80;;;;;;5021320;28;20050;-56
2023/07/25 09:14:01;;;;;;;2.80;1.60;;;20.80;57.40;;;;;;5025113;28;20053;-55
2023/07/25 09:16:30;;;;;;;4.45;1.70;;;20.80;57.90;;;;;;5027276;28;20069;-54
2023/07/25 09:18:56;;;;;;;1.73;1.40;;;20.80;58.30;;;;;;5026564;28;20050;-54
2023/07/25 09:21:23;;;;;;;3.75;1.40;;;20.90;58.50;;;;;;5011874;28;20049;-55
2023/07/25 09:23:54;;;;;;;5.85;1.80;;;20.90;58.20;;;;;;5030578;28;20057;-55
2023/07/25 09:26:28;;;;;;;5.57;2.30;;;21.00;57.30;;;;;;5028578;28;20057;-54
2023/07/25 09:28:57;;;;;;;5.25;1.80;;;21.10;57.60;;;;;;5013270;28;20049;-55
2023/07/25 09:31:27;;;;;;;;;;;21.30;57.80;;;;;;5022369;28;20042;-54
2023/07/25 09:33:55;;;;;;;2.45;1.08;;;21.40;59.40;;;;;;5019034;28;19921;-57
2023/07/25 09:36:22;;;;;;;4.13;1.65;;;21.50;57.70;;;;;;5026406;28;20571;-55
2023/07/25 09:38:50;;;;;;;3.75;1.60;;;21.60;57.50;;;;;;5024416;28;20542;-55
2023/07/25 09:41:20;;;;;;;3.47;1.48;;;21.70;57.30;;;;;;5029884;28;20045;-55
2023/07/25 09:43:47;;;;;;;6.15;1.40;;;21.80;57.40;;;;;;5032776;28;20068;-55
2023/07/25 09:46:14;;;;;;;3.30;1.45;;;22.00;56.20;;;;;;5025039;28;20057;-55
2023/07/25 09:48:46;;;;;;;3.80;1.25;;;22.10;55.90;;;;;;5027800;28;20057;-55
2023/07/25 09:51:14;;;;;;;2.95;1.33;;;22.20;54.90;;;;;;5028948;28;20052;-55
2023/07/25 09:53:45;;;;;;;2.00;1.00;;;22.30;55.10;;;;;;5030100;28;20048;-54
2023/07/25 09:56:11;;;;;;;2.35;1.40;;;22.40;54.50;;;;;;5028609;28;20041;-56
2023/07/25 09:58:38;;;;;;;4.80;1.20;;;22.50;54.60;;;;;;5025228;28;20561;-55
2023/07/25 10:01:26;;;;;;;4.18;1.27;;;22.60;54.30;;;;;;5025799;28;20406;-53
2023/07/25 10:03:53;;;;;;;4.80;1.75;;;22.70;53.70;;;;;;5028905;28;20140;-55
2023/07/25 10:06:20;;;;;;;2.60;1.00;;;22.70;52.90;;;;;;5028993;28;20065;-55
2023/07/25 10:08:47;;;;;;;2.00;1.45;;;22.80;52.60;;;;;;5027283;28;20388;-55
2023/07/25 10:11:15;;;;;;;2.00;1.10;;;22.80;52.30;;;;;;5022553;28;20144;-55
2023/07/25 10:13:42;;;;;;;2.95;1.15;;;22.80;51.70;;;;;;5027899;28;20037;-53
2023/07/25 10:16:10;;;;;;;5.88;1.92;;;22.80;51.50;;;;;;5028312;28;20450;-55
2023/07/25 10:18:37;;;;;;;3.50;1.50;;;22.80;51.20;;;;;;5022950;28;20065;-55
2023/07/25 10:21:04;;;;;;;1.58;1.20;;;22.80;51.40;;;;;;5022885;28;20060;-55
2023/07/25 10:23:36;;;;;;;4.20;1.48;;;22.80;52.30;;;;;;5028080;28;20076;-55
2023/07/25 10:26:12;;;;;;;3.67;1.77;;;22.80;52.10;;;;;;5028287;28;20095;-55
2023/07/25 10:28:40;;;;;;;2.65;1.42;;;22.80;51.80;;;;;;5019331;28;20079;-55
2023/07/25 10:31:08;;;;;;;4.35;1.33;;;22.70;52.40;;;;;;5021757;28;20085;-56
2023/07/25 10:33:38;;;;;;;1.67;1.40;;;22.70;52.80;;;;;;5020094;28;20046;-54
2023/07/25 10:36:09;;;;;;;3.75;1.38;;;22.70;51.50;;;;;;5028022;28;20443;-55
2023/07/25 10:38:39;;;;;;;3.53;1.23;;;22.70;51.50;;;;;;5027735;28;20128;-55
2023/07/25 10:41:09;;;;;;;2.97;1.25;;;22.70;51.80;;;;;;5027849;28;20055;-55
2023/07/25 10:43:48;;;;;;;4.25;1.27;;;22.70;51.50;;;;;;5023553;28;20045;-54
2023/07/25 10:46:17;;;;;;;3.95;1.20;;;22.70;51.40;;;;;;5024117;28;20148;-55
2023/07/25 10:48:46;;;;;;;4.80;1.63;;;22.70;52.00;;;;;;5027318;28;20038;-55
2023/07/25 10:51:15;;;;;;;2.45;1.40;;;22.60;51.90;;;;;;5026451;28;20797;-56
2023/07/25 10:54:10;;;;;;;3.10;1.60;;;22.50;51.90;;;;;;5027245;28;20048;-55
2023/07/25 10:56:39;;;;;;;5.35;1.83;;;22.40;52.50;;;;;;5027583;28;20129;-56
2023/07/25 10:59:08;;;;;;;4.97;1.48;;;22.20;52.80;;;;;;5021804;28;20041;-54
2023/07/25 11:01:39;;;;;;;6.90;1.80;;;22.10;53.40;;;;;;5023955;28;20053;-55
2023/07/25 11:04:29;;;;;;;4.60;2.03;;;21.90;54.90;;;;;;5028221;28;20530;-55
2023/07/25 11:07:11;;;;;;;3.65;1.50;;;21.70;56.10;;;;;;5013707;28;20060;-55
2023/07/25 11:09:43;;;;;;;6.68;1.70;;;21.50;56.70;;;;;;5028429;28;20050;-55
2023/07/25 11:12:11;;;;;;;2.93;1.40;;;21.40;57.80;;;;;;5029443;28;20457;-55
2023/07/25 11:14:42;;;;;;;4.80;1.65;;;21.30;58.50;;;;;;5022888;28;20103;-55
2023/07/25 11:17:10;;;;;;;3.55;1.52;;;21.20;59.50;;;;;;5026561;28;20042;-55
2023/07/25 11:19:39;;;;;;;1.70;1.40;;;21.20;60.20;;;;;;5029050;28;20076;-56
2023/07/25 11:22:11;;;;;;;2.92;1.70;;;21.30;59.70;;;;;;5028712;28;20116;-56
2023/07/25 11:24:46;;;;;;;7.13;2.70;;;21.30;60.40;;;;;;5023116;28;20580;-55
2023/07/25 11:27:13;;;;;;;3.15;1.60;;;21.40;60.80;;;;;;5024938;28;20458;-55
2023/07/25 11:29:41;;;;;;;2.67;1.30;;;21.50;60.80;;;;;;5022651;28;20081;-56
2023/07/25 11:32:08;;;;;;;4.07;1.75;;;21.60;60.30;;;;;;5033001;28;20084;-55
2023/07/25 11:34:34;;;;;;;4.93;1.58;;;21.70;59.80;;;;;;5014272;28;20467;-56
2023/07/25 11:37:11;;;;;;;4.10;1.58;;;21.80;59.20;;;;;;5032230;28;20045;-56
2023/07/25 11:39:39;;;;;;;3.58;1.50;;;22.00;59.90;;;;;;5021687;28;20076;-56
2023/07/25 11:42:08;;;;;;;5.43;1.60;;;22.20;59.60;;;;;;5029837;28;20080;-54
2023/07/25 11:44:35;;;;;;;3.70;2.05;;;22.30;59.10;;;;;;5031762;28;20091;-55
2023/07/25 11:47:01;;;;;;;3.20;1.85;;;22.40;57.70;;;;;;5026766;28;20052;-55
2023/07/25 11:49:28;;;;;;;1.83;1.52;;;22.60;56.30;;;;;;5011671;28;20049;-55
2023/07/25 11:52:15;;;;;;;2.25;1.40;;;22.60;56.80;;;;;;5027634;28;20048;-55
2023/07/25 11:54:42;;;;;;;4.55;1.60;;;22.70;55.40;;;;;;5026620;28;20498;-54
2023/07/25 11:57:10;;;;;;;2.00;1.40;;;22.80;55.20;;;;;;5027956;28;20045;-56
2023/07/25 11:59:41;;;;;;;3.22;1.45;;;22.80;54.80;;;;;;5025431;28;20041;-55
2023/07/25 12:02:08;;;;;;;4.03;1.70;;;22.80;54.40;;;;;;5025865;28;20492;-55
2023/07/25 12:04:43;;;;;;;1.95;1.33;;;22.80;53.80;;;;;;5031348;28;20045;-55
2023/07/25 12:07:11;;;;;;;3.15;1.73;;;22.80;52.30;;;;;;5031947;28;20041;-56
2023/07/25 12:09:37;;;;;;;2.95;1.20;;;22.70;53.10;;;;;;5023238;28;20707;-55
2023/07/25 12:12:11;;;;;;;1.98;1.30;;;22.60;52.70;;;;;;5032158;28;20037;-55
2023/07/25 12:14:38;;;;;;;3.85;1.58;;;22.60;52.30;;;;;;5031014;28;20551;-55
2023/07/25 12:17:05;;;;;;;2.45;1.30;;;22.40;52.40;;;;;;5031688;28;20384;-55
2023/07/25 12:19:33;;;;;;;4.60;1.27;;;22.30;52.60;;;;;;5025269;28;20048;-55
2023/07/25 12:22:07;;;;;;;1.90;1.02;;;22.20;52.50;;;;;;5031922;28;20038;-55
2023/07/25 12:24:40;;;;;;;2.70;1.13;;;22.10;52.80;;;;;;5031692;28;20068;-55
2023/07/25 12:27:17;;;;;;;4.22;1.33;;;22.00;53.30;;;;;;5029779;28;20048;-53
2023/07/25 12:29:44;;;;;;;2.85;1.60;;;22.00;53.10;;;;;;5018786;28;20071;-56
2023/07/25 12:32:13;;;;;;;2.88;1.30;;;21.90;54.00;;;;;;5031513;28;20115;-56
2023/07/25 12:34:40;;;;;;;3.80;1.20;;;21.90;54.10;;;;;;5030895;28;20041;-55
2023/07/25 12:37:07;;;;;;;3.13;1.40;;;22.00;54.10;;;;;;5030020;28;20049;-55
2023/07/25 12:39:33;;;;;;;4.75;1.70;;;22.00;54.00;;;;;;5026153;28;20486;-55
2023/07/25 12:42:00;;;;;;;3.38;1.25;;;22.10;54.30;;;;;;5024929;28;20046;-56
2023/07/25 12:44:26;;;;;;;4.35;1.20;;;22.20;54.00;;;;;;5030431;28;20072;-56
2023/07/25 12:46:53;;;;;;;4.95;1.38;;;22.40;53.10;;;;;;5030541;28;20042;-55
2023/07/25 12:49:20;;;;;;;4.22;1.90;;;22.60;52.40;;;;;;5031228;28;20564;-55
2023/07/25 12:51:47;;;;;;;4.05;1.40;;;22.70;52.50;;;;;;5028129;28;20065;-55
2023/07/25 12:54:14;;;;;;;1.80;1.20;;;22.90;52.30;;;;;;5023511;28;20042;-55